createdAt,value
2023-05-05T00:01:04.722Z,12.40
2023-05-05T00:03:35.835Z,12.34
2023-05-05T00:06:04.686Z,12.33
2023-05-05T00:08:33.583Z,12.27
2023-05-05T00:11:03.613Z,12.19
2023-05-05T00:13:32.095Z,12.16
2023-05-05T00:16:00.683Z,12.11
2023-05-05T00:18:30.361Z,12.08
2023-05-05T00:20:58.820Z,12.06
2023-05-05T00:23:27.476Z,11.96
2023-05-05T00:25:56.172Z,11.98
2023-05-05T00:28:26.915Z,11.95
2023-05-05T00:30:55.583Z,11.87
2023-05-05T00:33:24.075Z,11.87
2023-05-05T00:35:52.679Z,11.85
2023-05-05T00:38:21.130Z,11.81
2023-05-05T00:40:49.562Z,11.78
2023-05-05T00:43:18.034Z,11.77
2023-05-05T00:45:48.258Z,11.74
2023-05-05T00:48:19.108Z,11.66
2023-05-05T00:50:47.788Z,11.65
2023-05-05T00:53:16.314Z,11.60
2023-05-05T00:55:44.795Z,11.55
2023-05-05T00:58:13.875Z,11.51
2023-05-05T01:00:42.255Z,11.52
2023-05-05T01:03:13.243Z,11.47
2023-05-05T01:05:53.153Z,11.44
2023-05-05T01:08:35.231Z,11.38
2023-05-05T01:11:09.350Z,11.39
2023-05-05T01:13:49.807Z,11.32
2023-05-05T01:16:22.376Z,11.33
2023-05-05T01:19:00.104Z,11.33
2023-05-05T01:21:33.610Z,11.32
2023-05-05T01:24:35.329Z,11.27
2023-05-05T01:27:30.697Z,11.27
2023-05-05T01:30:10.273Z,11.25
2023-05-05T01:32:48.496Z,11.21
2023-05-05T01:35:23.285Z,11.21
2023-05-05T01:37:57.515Z,11.16
2023-05-05T01:40:29.450Z,11.13
2023-05-05T01:43:00.028Z,11.13
2023-05-05T01:45:31.115Z,11.09
2023-05-05T01:48:03.528Z,11.09
2023-05-05T01:50:33.852Z,11.04
2023-05-05T01:53:05.214Z,11.06
2023-05-05T01:55:35.453Z,11.06
2023-05-05T01:58:05.782Z,11.05
2023-05-05T02:00:35.774Z,10.97
2023-05-05T02:03:08.406Z,11.00
2023-05-05T02:05:39.238Z,10.96
2023-05-05T02:08:10.309Z,10.91
2023-05-05T02:10:41.697Z,10.94
2023-05-05T02:13:13.331Z,10.89
2023-05-05T02:15:43.482Z,10.90
2023-05-05T02:18:14.438Z,10.88
2023-05-05T02:20:43.128Z,10.85
2023-05-05T02:23:11.618Z,10.84
2023-05-05T02:25:43.515Z,10.83
2023-05-05T02:28:17.227Z,10.80
2023-05-05T02:30:47.395Z,10.79
2023-05-05T02:33:22.373Z,10.78
2023-05-05T02:35:53.787Z,10.74
2023-05-05T02:38:28.614Z,10.72
2023-05-05T02:40:59.499Z,10.71
2023-05-05T02:43:32.680Z,10.68
2023-05-05T02:46:01.299Z,10.66
2023-05-05T02:48:31.246Z,10.58
2023-05-05T02:50:59.992Z,10.62
2023-05-05T02:53:29.405Z,10.61
2023-05-05T02:56:06.743Z,10.59
2023-05-05T02:58:44.131Z,10.57
2023-05-05T03:01:21.033Z,10.55
2023-05-05T03:03:59.932Z,10.54
2023-05-05T03:06:29.880Z,10.52
2023-05-05T03:09:08.172Z,10.49
2023-05-05T03:11:41.286Z,10.48
2023-05-05T03:14:13.238Z,10.44
2023-05-05T03:16:45.061Z,10.34
2023-05-05T03:19:18.044Z,10.34
2023-05-05T03:21:47.199Z,10.34
2023-05-05T03:24:17.463Z,10.35
2023-05-05T03:26:47.451Z,10.34
2023-05-05T03:29:16.332Z,10.31
2023-05-05T03:31:45.232Z,10.32
2023-05-05T03:34:15.183Z,10.27
2023-05-05T03:36:44.442Z,10.29
2023-05-05T03:39:12.965Z,10.26
2023-05-05T03:41:41.720Z,10.28
2023-05-05T03:44:10.302Z,10.23
2023-05-05T03:46:38.859Z,10.20
2023-05-05T03:49:07.395Z,10.15
2023-05-05T03:51:37.502Z,10.14
2023-05-05T03:54:06.088Z,10.11
2023-05-05T03:56:34.565Z,10.10
2023-05-05T03:59:03.296Z,10.10
2023-05-05T04:01:31.747Z,10.06
2023-05-05T04:04:00.242Z,10.03
2023-05-05T04:06:28.998Z,9.96
2023-05-05T04:08:58.918Z,9.97
2023-05-05T04:11:27.674Z,9.92
2023-05-05T04:13:56.145Z,9.77
2023-05-05T04:16:24.845Z,9.77
2023-05-05T04:18:53.376Z,9.80
2023-05-05T04:21:21.815Z,9.85
2023-05-05T04:23:50.672Z,9.87
2023-05-05T04:26:21.161Z,9.90
2023-05-05T04:28:50.722Z,9.93
2023-05-05T04:31:19.236Z,9.98
2023-05-05T04:33:47.726Z,9.97
2023-05-05T04:36:16.108Z,9.98
2023-05-05T04:38:46.789Z,9.98
2023-05-05T04:41:15.484Z,9.99
2023-05-05T04:43:45.485Z,10.03
2023-05-05T04:46:14.239Z,10.04
2023-05-05T04:48:43.164Z,9.98
2023-05-05T04:51:12.913Z,10.09
2023-05-05T04:53:41.451Z,10.10
2023-05-05T04:56:09.960Z,10.08
2023-05-05T04:58:38.376Z,10.07
2023-05-05T05:01:08.394Z,10.10
2023-05-05T05:03:36.958Z,10.15
2023-05-05T05:06:05.641Z,10.20
2023-05-05T05:08:34.207Z,10.27
2023-05-05T05:11:03.001Z,10.39
2023-05-05T05:13:31.429Z,10.46
2023-05-05T05:16:00.261Z,10.55
2023-05-05T05:18:30.304Z,10.63
2023-05-05T05:20:58.855Z,10.69
2023-05-05T05:23:27.567Z,10.77
2023-05-05T05:25:56.441Z,10.86
2023-05-05T05:28:25.439Z,10.92
2023-05-05T05:30:54.988Z,11.01
2023-05-05T05:33:23.577Z,11.08
2023-05-05T05:35:53.580Z,11.21
2023-05-05T05:38:22.037Z,11.31
2023-05-05T05:40:50.622Z,11.38
2023-05-05T05:43:19.112Z,11.45
2023-05-05T05:45:47.902Z,11.52
2023-05-05T05:48:16.485Z,11.70
2023-05-05T05:50:44.868Z,11.77
2023-05-05T05:53:15.093Z,11.90
2023-05-05T05:55:43.487Z,11.99
2023-05-05T05:58:12.205Z,12.12
2023-05-05T06:00:40.968Z,12.25
2023-05-05T06:03:09.584Z,12.39
2023-05-05T06:05:38.594Z,12.38
2023-05-05T06:08:07.218Z,12.45
2023-05-05T06:10:37.657Z,12.50
2023-05-05T06:13:06.328Z,12.56
2023-05-05T06:15:34.936Z,12.66
2023-05-05T06:18:03.584Z,12.79
2023-05-05T06:20:32.048Z,12.90
2023-05-05T06:23:01.146Z,13.01
2023-05-05T06:25:29.587Z,13.03
2023-05-05T06:28:00.366Z,12.98
2023-05-05T06:30:29.167Z,13.13
2023-05-05T06:32:57.741Z,13.22
2023-05-05T06:35:26.187Z,13.43
2023-05-05T06:37:55.028Z,13.48
2023-05-05T06:40:23.501Z,13.66
2023-05-05T06:42:52.256Z,13.82
2023-05-05T06:45:22.536Z,13.89
2023-05-05T06:47:50.975Z,13.97
2023-05-05T06:50:19.966Z,14.09
2023-05-05T06:52:48.409Z,14.17
2023-05-05T06:55:17.285Z,14.23
2023-05-05T06:57:45.801Z,14.36
2023-05-05T07:00:17.213Z,14.51
2023-05-05T07:02:47.828Z,14.62
2023-05-05T07:05:16.685Z,14.67
2023-05-05T07:07:52.955Z,14.77
2023-05-05T07:10:22.183Z,14.94
2023-05-05T07:12:52.444Z,14.99
2023-05-05T07:15:28.597Z,15.11
2023-05-05T07:17:59.532Z,15.17
2023-05-05T07:20:28.418Z,15.26
2023-05-05T07:22:56.971Z,15.37
2023-05-05T07:25:25.404Z,15.47
2023-05-05T07:27:53.920Z,15.57
2023-05-05T07:30:22.542Z,15.67
2023-05-05T07:32:51.768Z,15.78
2023-05-05T07:35:21.866Z,15.82
2023-05-05T07:37:51.215Z,15.84
2023-05-05T07:40:19.687Z,16.00
2023-05-05T07:42:48.669Z,16.16
2023-05-05T07:45:17.544Z,16.45
2023-05-05T07:47:46.236Z,16.65
2023-05-05T07:50:15.082Z,16.63
2023-05-05T07:52:49.862Z,16.87
2023-05-05T07:55:22.446Z,16.96
2023-05-05T07:57:51.214Z,16.99
2023-05-05T08:00:21.912Z,17.16
2023-05-05T08:02:50.642Z,17.16
2023-05-05T08:05:19.228Z,17.21
2023-05-05T08:07:49.090Z,17.31
2023-05-05T08:10:17.525Z,17.39
2023-05-05T08:12:45.998Z,17.53
2023-05-05T08:15:14.592Z,17.56
2023-05-05T08:17:47.893Z,17.77
2023-05-05T08:20:16.927Z,17.86
2023-05-05T08:22:45.719Z,17.87
2023-05-05T08:25:16.187Z,17.98
2023-05-05T08:27:44.916Z,18.06
2023-05-05T08:30:13.937Z,18.16
2023-05-05T08:32:42.647Z,18.29
2023-05-05T08:37:40.883Z,18.53
2023-05-05T08:40:13.003Z,18.65
2023-05-05T08:42:44.816Z,18.81
2023-05-05T08:45:13.777Z,18.85
2023-05-05T08:47:43.649Z,18.90
2023-05-05T08:50:13.332Z,19.09
2023-05-05T08:52:44.677Z,19.20
2023-05-05T08:55:24.301Z,19.32
2023-05-05T08:57:57.321Z,19.32
2023-05-05T09:00:26.712Z,19.47
2023-05-05T09:02:57.813Z,19.54
2023-05-05T09:05:26.516Z,19.67
2023-05-05T09:07:55.132Z,19.72
2023-05-05T09:10:23.631Z,19.87
2023-05-05T09:12:53.571Z,20.00
2023-05-05T09:15:22.063Z,20.06
2023-05-05T09:17:50.808Z,20.11
2023-05-05T09:20:19.313Z,20.26
2023-05-05T09:22:48.675Z,20.34
2023-05-05T09:25:18.629Z,20.47
2023-05-05T09:27:49.663Z,20.53
2023-05-05T09:30:26.233Z,20.73
2023-05-05T09:32:56.823Z,20.85
2023-05-05T09:35:25.356Z,20.91
2023-05-05T09:37:53.826Z,20.93
2023-05-05T09:40:23.146Z,21.08
2023-05-05T09:43:02.910Z,21.07
2023-05-05T09:45:32.743Z,21.15
2023-05-05T09:48:01.433Z,21.20
2023-05-05T09:50:32.848Z,21.27
2023-05-05T09:53:03.079Z,21.34
2023-05-05T09:55:32.684Z,21.41
2023-05-05T09:58:19.904Z,21.38
2023-05-05T10:00:50.154Z,21.39
2023-05-05T10:03:18.969Z,21.59
2023-05-05T10:05:50.727Z,21.75
2023-05-05T10:08:20.790Z,21.87
2023-05-05T10:10:52.651Z,21.99
2023-05-05T10:13:22.112Z,22.09
2023-05-05T10:15:53.312Z,22.14
2023-05-05T10:18:23.732Z,22.25
2023-05-05T10:20:57.562Z,22.38
2023-05-05T10:23:29.970Z,22.36
2023-05-05T10:26:03.123Z,22.53
2023-05-05T10:28:35.629Z,22.61
2023-05-05T10:31:24.612Z,22.62
2023-05-05T10:33:56.847Z,22.80
2023-05-05T10:36:26.734Z,22.71
2023-05-05T10:38:58.204Z,22.79
2023-05-05T10:41:27.352Z,23.08
2023-05-05T10:43:58.568Z,23.23
2023-05-05T10:46:29.731Z,23.19
2023-05-05T10:49:06.226Z,23.26
2023-05-05T10:51:42.894Z,23.42
2023-05-05T10:54:22.420Z,23.42
2023-05-05T10:56:51.428Z,23.41
2023-05-05T10:59:41.676Z,23.45
2023-05-05T11:02:30.084Z,23.61
2023-05-05T11:05:09.589Z,23.82
2023-05-05T11:07:38.281Z,23.97
2023-05-05T11:10:08.271Z,24.22
2023-05-05T11:13:06.739Z,24.22
2023-05-05T11:15:44.738Z,24.33
2023-05-05T11:18:34.217Z,24.62
2023-05-05T11:21:15.849Z,24.63
2023-05-05T11:23:49.706Z,24.67
2023-05-05T11:26:20.032Z,24.68
2023-05-05T11:29:02.991Z,24.78
2023-05-05T11:31:32.163Z,24.76
2023-05-05T11:34:32.287Z,24.74
2023-05-05T11:37:03.913Z,25.04
2023-05-05T11:39:46.343Z,24.85
2023-05-05T11:42:28.053Z,24.76
2023-05-05T11:44:56.884Z,25.08
2023-05-05T11:47:30.286Z,25.36
2023-05-05T11:50:00.927Z,25.48
2023-05-05T11:52:29.343Z,25.51
2023-05-05T11:55:03.992Z,25.37
2023-05-05T11:57:32.731Z,25.39
2023-05-05T12:00:03.156Z,25.31
2023-05-05T12:02:32.194Z,25.52
2023-05-05T12:05:02.926Z,25.78
2023-05-05T12:07:33.321Z,25.49
2023-05-05T12:10:02.287Z,25.34
2023-05-05T12:12:40.222Z,25.29
2023-05-05T12:15:10.013Z,25.53
2023-05-05T12:17:41.215Z,25.71
2023-05-05T12:20:16.024Z,26.10
2023-05-05T12:22:45.366Z,26.36
2023-05-05T12:25:14.078Z,26.39
2023-05-05T12:27:42.941Z,26.41
2023-05-05T12:30:16.989Z,26.33
2023-05-05T12:32:47.415Z,26.31
2023-05-05T12:35:17.576Z,26.38
2023-05-05T12:37:46.828Z,26.70
2023-05-05T12:40:46.989Z,26.89
2023-05-05T12:43:32.736Z,26.97
2023-05-05T12:46:12.839Z,26.84
2023-05-05T12:48:47.275Z,26.56
2023-05-05T12:51:20.474Z,26.24
2023-05-05T12:53:49.952Z,26.31
2023-05-05T12:56:35.229Z,26.63
2023-05-05T12:59:05.317Z,26.92
2023-05-05T13:01:33.886Z,26.74
2023-05-05T13:04:12.998Z,26.68
2023-05-05T13:06:44.207Z,26.51
2023-05-05T13:09:24.689Z,26.56
2023-05-05T13:11:53.407Z,26.78
2023-05-05T13:14:22.174Z,27.01
2023-05-05T13:16:50.943Z,27.05
2023-05-05T13:19:19.432Z,26.99
2023-05-05T13:21:49.316Z,26.95
2023-05-05T13:26:53.361Z,27.26
2023-05-05T13:29:23.594Z,27.13
2023-05-05T13:31:54.532Z,27.23
2023-05-05T13:34:22.895Z,27.26
2023-05-05T13:36:52.889Z,27.26
2023-05-05T13:39:21.774Z,27.32
2023-05-05T13:41:50.260Z,27.17
2023-05-05T13:44:18.759Z,26.82
2023-05-05T13:46:47.470Z,26.96
2023-05-05T13:49:15.940Z,26.97
2023-05-05T13:51:45.369Z,27.09
2023-05-05T13:54:15.385Z,27.35
2023-05-05T13:56:44.087Z,27.43
2023-05-05T13:59:12.484Z,27.38
2023-05-05T14:01:40.961Z,27.41
2023-05-05T14:04:10.563Z,27.53
2023-05-05T14:06:39.070Z,27.44
2023-05-05T14:09:08.147Z,27.45
2023-05-05T14:11:37.984Z,26.87
2023-05-05T14:14:06.408Z,26.92
2023-05-05T14:16:34.907Z,26.86
2023-05-05T14:19:04.040Z,26.79
2023-05-05T14:21:33.133Z,26.81
2023-05-05T14:24:01.563Z,26.89
2023-05-05T14:26:29.944Z,26.36
2023-05-05T14:28:59.885Z,26.01
2023-05-05T14:31:28.851Z,26.17
2023-05-05T14:33:57.294Z,26.13
2023-05-05T14:36:25.932Z,26.13
2023-05-05T14:38:54.349Z,26.04
2023-05-05T14:41:22.911Z,26.13
2023-05-05T14:43:53.803Z,25.65
2023-05-05T14:46:24.149Z,25.92
2023-05-05T14:48:52.662Z,25.95
2023-05-05T14:51:21.031Z,25.65
2023-05-05T14:53:49.434Z,25.52
2023-05-05T14:56:18.131Z,24.77
2023-05-05T14:58:47.735Z,24.87
2023-05-05T15:01:17.807Z,24.92
2023-05-05T15:03:48.264Z,24.99
2023-05-05T15:06:16.930Z,25.07
2023-05-05T15:08:45.362Z,24.85
2023-05-05T15:11:14.008Z,25.01
2023-05-05T15:13:42.726Z,25.25
2023-05-05T15:16:11.331Z,24.94
2023-05-05T15:18:40.128Z,24.81
2023-05-05T15:21:10.161Z,24.52
2023-05-05T15:23:38.851Z,24.30
2023-05-05T15:26:07.485Z,24.32
2023-05-05T15:28:36.379Z,24.43
2023-05-05T15:31:06.416Z,24.70
2023-05-05T15:33:35.120Z,24.64
2023-05-05T15:36:04.172Z,24.37
2023-05-05T15:38:34.122Z,24.40
2023-05-05T15:41:02.541Z,24.15
2023-05-05T15:43:31.323Z,23.92
2023-05-05T15:46:00.000Z,24.09
2023-05-05T15:48:30.530Z,24.14
2023-05-05T15:50:59.113Z,23.95
2023-05-05T15:53:27.924Z,23.53
2023-05-05T15:55:57.962Z,23.23
2023-05-05T15:58:26.499Z,23.37
2023-05-05T16:00:55.063Z,23.39
2023-05-05T16:03:24.039Z,23.51
2023-05-05T16:05:55.245Z,23.40
2023-05-05T16:08:23.653Z,23.21
2023-05-05T16:10:52.087Z,23.26
2023-05-05T16:13:22.127Z,23.23
2023-05-05T16:15:52.328Z,22.95
2023-05-05T16:18:20.877Z,22.95
2023-05-05T16:20:49.449Z,23.05
2023-05-05T16:23:18.076Z,23.01
2023-05-05T16:25:46.663Z,22.97
2023-05-05T16:28:16.594Z,23.05
2023-05-05T16:30:46.540Z,22.91
2023-05-05T16:33:15.078Z,22.96
2023-05-05T16:35:45.823Z,23.02
2023-05-05T16:38:15.425Z,23.11
2023-05-05T16:40:44.345Z,22.86
2023-05-05T16:43:13.646Z,22.50
2023-05-05T16:45:43.747Z,22.51
2023-05-05T16:48:15.127Z,22.64
2023-05-05T16:50:43.810Z,22.60
2023-05-05T16:53:12.469Z,22.37
2023-05-05T16:55:41.154Z,22.48
2023-05-05T16:58:09.746Z,22.40
2023-05-05T17:00:38.313Z,22.49
2023-05-05T17:03:06.805Z,22.41
2023-05-05T17:05:36.865Z,22.30
2023-05-05T17:08:08.221Z,22.07
2023-05-05T17:10:37.043Z,21.92
2023-05-05T17:13:05.743Z,21.83
2023-05-05T17:15:34.197Z,21.76
2023-05-05T17:18:02.752Z,21.61
2023-05-05T17:20:31.646Z,21.61
2023-05-05T17:23:03.913Z,21.52
2023-05-05T17:25:33.115Z,21.43
2023-05-05T17:28:01.710Z,21.46
2023-05-05T17:30:30.263Z,21.47
2023-05-05T17:32:58.836Z,21.21
2023-05-05T17:35:27.722Z,21.05
2023-05-05T17:37:56.299Z,21.16
2023-05-05T17:40:26.413Z,20.98
2023-05-05T17:42:54.878Z,20.96
2023-05-05T17:45:27.355Z,20.95
2023-05-05T17:47:55.910Z,20.68
2023-05-05T17:50:24.707Z,20.81
2023-05-05T17:52:53.572Z,20.84
2023-05-05T17:55:22.161Z,20.86
2023-05-05T17:57:53.092Z,20.75
2023-05-05T18:00:22.970Z,20.68
2023-05-05T18:02:51.661Z,20.62
2023-05-05T18:05:20.206Z,20.51
2023-05-05T18:07:48.788Z,20.48
2023-05-05T18:10:17.360Z,20.52
2023-05-05T18:12:45.871Z,20.52
2023-05-05T18:15:16.133Z,20.46
2023-05-05T18:17:45.076Z,20.26
2023-05-05T18:20:14.056Z,20.16
2023-05-05T18:22:42.535Z,20.06
2023-05-05T18:25:12.087Z,19.85
2023-05-05T18:27:41.916Z,19.62
2023-05-05T18:30:11.215Z,19.52
2023-05-05T18:32:41.344Z,19.35
2023-05-05T18:35:11.231Z,19.15
2023-05-05T18:37:39.947Z,19.07
2023-05-05T18:40:10.405Z,19.03
2023-05-05T18:42:38.798Z,18.90
2023-05-05T18:45:08.786Z,18.82
2023-05-05T18:47:39.368Z,18.76
2023-05-05T18:50:11.433Z,18.57
2023-05-05T18:52:40.747Z,18.17
2023-05-05T18:55:09.983Z,18.19
2023-05-05T18:57:38.862Z,18.08
2023-05-05T19:00:08.756Z,17.97
2023-05-05T19:02:37.406Z,17.87
2023-05-05T19:05:06.636Z,17.80
2023-05-05T19:07:37.085Z,17.76
2023-05-05T19:10:07.560Z,17.70
2023-05-05T19:12:36.133Z,17.56
2023-05-05T19:15:04.662Z,17.43
2023-05-05T19:17:33.641Z,17.52
2023-05-05T19:20:05.201Z,17.46
2023-05-05T19:22:33.631Z,17.53
2023-05-05T19:25:04.089Z,17.46
2023-05-05T19:27:34.108Z,17.33
2023-05-05T19:30:03.558Z,17.26
2023-05-05T19:32:33.239Z,17.18
2023-05-05T19:35:01.932Z,17.22
2023-05-05T19:37:30.824Z,17.05
2023-05-05T19:39:59.628Z,17.08
2023-05-05T19:42:30.163Z,17.09
2023-05-05T19:44:59.499Z,16.90
2023-05-05T19:47:28.203Z,16.85
2023-05-05T19:49:57.063Z,16.90
2023-05-05T19:52:27.026Z,16.71
2023-05-05T19:54:55.851Z,16.63
2023-05-05T19:57:24.286Z,16.63
2023-05-05T19:59:54.064Z,16.48
2023-05-05T20:02:24.471Z,16.49
2023-05-05T20:04:53.201Z,16.30
2023-05-05T20:07:21.703Z,16.29
2023-05-05T20:09:53.117Z,16.26
2023-05-05T20:12:23.394Z,16.15
2023-05-05T20:14:51.880Z,16.12
2023-05-05T20:17:21.750Z,16.15
2023-05-05T20:19:50.747Z,16.12
2023-05-05T20:22:19.759Z,16.05
2023-05-05T20:24:48.335Z,16.00
2023-05-05T20:27:16.945Z,15.90
2023-05-05T20:29:45.855Z,15.67
2023-05-05T20:32:14.353Z,15.73
2023-05-05T20:34:44.141Z,15.64
2023-05-05T20:37:13.954Z,15.66
2023-05-05T20:39:44.093Z,15.56
2023-05-05T20:42:12.487Z,15.46
2023-05-05T20:44:41.502Z,15.47
2023-05-05T20:47:10.041Z,15.24
2023-05-05T20:49:38.653Z,15.24
2023-05-05T20:52:08.864Z,15.19
2023-05-05T20:54:40.268Z,15.12
2023-05-05T20:57:09.443Z,15.06
2023-05-05T20:59:38.647Z,15.11
2023-05-05T21:02:07.394Z,15.01
2023-05-05T21:04:35.973Z,15.05
2023-05-05T21:07:04.411Z,15.02
2023-05-05T21:09:35.456Z,14.73
2023-05-05T21:12:03.902Z,14.82
2023-05-05T21:14:32.380Z,14.78
2023-05-05T21:17:01.155Z,14.77
2023-05-05T21:19:29.662Z,14.69
2023-05-05T21:21:59.455Z,14.67
2023-05-05T21:24:28.284Z,14.71
2023-05-05T21:26:58.437Z,14.67
2023-05-05T21:29:26.976Z,14.68
2023-05-05T21:31:55.485Z,14.52
2023-05-05T21:34:26.067Z,14.58
2023-05-05T21:36:54.830Z,14.49
2023-05-05T21:39:25.552Z,14.46
2023-05-05T21:41:54.160Z,14.36
2023-05-05T21:44:25.780Z,14.31
2023-05-05T21:46:54.694Z,14.34
2023-05-05T21:49:23.300Z,14.26
2023-05-05T21:51:51.988Z,14.18
2023-05-05T21:54:20.390Z,14.16
2023-05-05T21:56:48.860Z,14.08
2023-05-05T21:59:17.475Z,14.02
2023-05-05T22:01:47.454Z,14.04
2023-05-05T22:04:15.949Z,14.01
2023-05-05T22:06:44.540Z,13.98
2023-05-05T22:09:13.135Z,13.89
2023-05-05T22:11:41.615Z,13.87
2023-05-05T22:14:10.200Z,13.87
2023-05-05T22:16:38.784Z,13.86
2023-05-05T22:19:08.808Z,13.83
2023-05-05T22:21:37.287Z,13.74
2023-05-05T22:24:07.370Z,13.73
2023-05-05T22:26:35.914Z,13.73
2023-05-05T22:29:04.542Z,13.61
2023-05-05T22:31:33.001Z,13.62
2023-05-05T22:34:01.572Z,13.56
2023-05-05T22:36:34.261Z,13.52
2023-05-05T22:39:02.759Z,13.49
2023-05-05T22:41:31.118Z,13.49
2023-05-05T22:43:59.564Z,13.47
2023-05-05T22:46:28.143Z,13.50
2023-05-05T22:48:57.190Z,13.47
2023-05-05T22:51:25.795Z,13.43
2023-05-05T22:53:55.738Z,13.37
2023-05-05T22:56:24.489Z,13.29
2023-05-05T22:58:53.332Z,13.28
2023-05-05T23:01:22.045Z,13.29
2023-05-05T23:03:50.786Z,13.30
2023-05-05T23:06:19.602Z,13.22
2023-05-05T23:08:49.170Z,13.20
2023-05-05T23:11:19.144Z,13.20
2023-05-05T23:13:47.992Z,13.21
2023-05-05T23:16:16.849Z,13.22
2023-05-05T23:18:45.875Z,13.16
2023-05-05T23:21:15.508Z,13.17
2023-05-05T23:23:43.887Z,13.10
2023-05-05T23:26:12.518Z,13.10
2023-05-05T23:28:42.433Z,13.10
2023-05-05T23:31:10.978Z,13.16
2023-05-05T23:33:39.301Z,13.14
2023-05-05T23:36:09.284Z,13.12
2023-05-05T23:38:37.708Z,13.03
2023-05-05T23:41:06.563Z,13.01
2023-05-05T23:43:35.300Z,13.07
2023-05-05T23:46:05.136Z,13.00
2023-05-05T23:48:33.652Z,13.04
2023-05-05T23:51:02.153Z,13.01
2023-05-05T23:53:30.635Z,13.01
2023-05-05T23:55:59.126Z,12.98
2023-05-05T23:58:27.933Z,12.96
